Time;durP1;ratioP1;P1;durP2;ratioP2;P2;SDS_P1;SDS_P2;PMS_P1;PMS_P2;Temp;Humidity;BMP_temperature;BMP_pressure;BME280_temperature;BME280_humidity;BME280_pressure;Samples;Min_cycle;Max_cycle;Signal;HPM_P1;HPM_P2
2023/05/16 00:03:25;;;;;;;1.33;0.60;;;;;;;;;;5081986;28;20178;-60
2023/05/16 00:07:06;;;;;;;2.15;0.70;;;;;;;;;;5076249;28;20125;-62
2023/05/16 00:10:46;;;;;;;1.60;0.82;;;;;;;;;;5083635;28;20052;-62
2023/05/16 00:14:27;;;;;;;1.70;0.93;;;;;;;;;;5082769;28;20055;-61
2023/05/16 00:18:07;;;;;;;3.47;1.08;;;;;;;;;;5075774;28;20050;-61
2023/05/16 00:21:47;;;;;;;1.50;1.08;;;;;;;;;;5079403;28;20052;-60
2023/05/16 00:25:28;;;;;;;1.23;0.85;;;;;;;;;;5080609;28;20036;-60
2023/05/16 00:29:08;;;;;;;3.75;0.65;;;;;;;;;;5081674;28;20487;-61
2023/05/16 00:32:48;;;;;;;1.83;0.90;;;;;;;;;;5075110;28;20130;-60
2023/05/16 00:36:30;;;;;;;2.80;0.90;;;;;;;;;;5072836;28;20048;-62
2023/05/16 00:40:09;;;;;;;1.25;0.60;;;;;;;;;;5082859;28;20145;-61
2023/05/16 00:43:50;;;;;;;0.70;0.70;;;;;;;;;;5077152;28;20408;-62
2023/05/16 00:47:30;;;;;;;0.98;0.80;;;;;;;;;;5076354;28;20044;-60
2023/05/16 00:51:11;;;;;;;0.95;0.70;;;;;;;;;;5075363;28;20565;-60
2023/05/16 00:54:51;;;;;;;2.65;0.60;;;;;;;;;;5076473;28;20544;-61
2023/05/16 00:58:32;;;;;;;3.13;0.88;;;;;;;;;;5072349;28;20072;-61
2023/05/16 01:02:11;;;;;;;1.15;0.70;;;;;;;;;;5077317;28;20135;-64
2023/05/16 01:05:52;;;;;;;1.88;1.02;;;;;;;;;;5079768;28;20586;-62
2023/05/16 01:09:34;;;;;;;1.40;0.75;;;;;;;;;;5075881;28;20051;-61
2023/05/16 01:13:21;;;;;;;3.10;0.90;;;;;;;;;;5074405;28;20048;-61
2023/05/16 01:16:43;;;;;;;;;;;;;;;;;;5072877;28;20569;-59
2023/05/16 01:20:24;;;;;;;2.78;1.00;;;;;;;;;;5081268;28;20313;-61
2023/05/16 01:24:07;;;;;;;3.78;0.90;;;;;;;;;;5076657;28;20040;-60
2023/05/16 01:27:47;;;;;;;1.63;0.90;;;;;;;;;;5069821;28;20052;-61
2023/05/16 01:31:27;;;;;;;0.80;0.80;;;;;;;;;;5082790;28;20621;-60
2023/05/16 01:35:10;;;;;;;1.38;0.73;;;;;;;;;;5081975;28;20051;-61
2023/05/16 01:38:52;;;;;;;0.73;0.73;;;;;;;;;;5085156;28;20099;-59
2023/05/16 01:42:32;;;;;;;1.40;0.90;;;;;;;;;;5078311;28;20044;-60
2023/05/16 01:46:14;;;;;;;2.40;1.08;;;;;;;;;;5073895;28;20082;-59
2023/05/16 01:49:59;;;;;;;1.17;0.80;;;;;;;;;;5083006;28;20138;-62
2023/05/16 01:53:46;;;;;;;1.20;0.90;;;;;;;;;;5081155;28;20052;-60
2023/05/16 01:57:26;;;;;;;1.67;0.82;;;;;;;;;;5083431;28;20071;-61
2023/05/16 02:01:07;;;;;;;2.63;0.98;;;;;;;;;;5080375;28;20130;-60
2023/05/16 02:04:47;;;;;;;2.38;1.00;;;;;;;;;;5080057;28;20056;-61
2023/05/16 02:08:29;;;;;;;1.60;0.90;;;;;;;;;;5072829;28;20487;-60
2023/05/16 02:12:10;;;;;;;3.15;0.80;;;;;;;;;;5079547;28;20399;-60
2023/05/16 02:15:51;;;;;;;2.35;0.80;;;;;;;;;;5082238;28;20052;-61
2023/05/16 02:19:32;;;;;;;1.92;0.90;;;;;;;;;;5081320;28;20040;-61
2023/05/16 02:23:12;;;;;;;1.38;0.90;;;;;;;;;;5079560;28;20055;-61
2023/05/16 02:26:53;;;;;;;1.98;0.77;;;;;;;;;;5073811;28;20043;-61
2023/05/16 02:30:33;;;;;;;1.45;0.80;;;;;;;;;;5083362;28;20040;-61
2023/05/16 02:34:14;;;;;;;0.98;0.80;;;;;;;;;;5093622;28;20403;-62
2023/05/16 02:37:55;;;;;;;0.70;0.68;;;;;;;;;;5081695;28;20044;-62
2023/05/16 02:41:35;;;;;;;1.20;0.85;;;;;;;;;;5081512;28;20668;-61
2023/05/16 02:45:15;;;;;;;1.52;0.70;;;;;;;;;;5088810;28;20051;-61
2023/05/16 02:48:56;;;;;;;1.77;0.82;;;;;;;;;;5073568;28;20068;-62
2023/05/16 02:52:37;;;;;;;1.27;0.70;;;;;;;;;;5081068;28;20564;-60
2023/05/16 02:56:20;;;;;;;1.45;0.60;;;;;;;;;;5086161;28;20112;-61
2023/05/16 03:00:00;;;;;;;1.17;0.80;;;;;;;;;;5083017;28;20055;-59
2023/05/16 03:03:40;;;;;;;1.02;0.70;;;;;;;;;;5083023;28;20069;-62
2023/05/16 03:07:22;;;;;;;2.00;0.90;;;;;;;;;;5076151;28;20052;-62
2023/05/16 03:11:02;;;;;;;1.92;0.85;;;;;;;;;;5086005;28;20119;-62
2023/05/16 03:14:42;;;;;;;1.83;0.70;;;;;;;;;;5089305;28;20040;-63
2023/05/16 03:18:23;;;;;;;3.28;0.90;;;;;;;;;;5083855;28;20339;-61
2023/05/16 03:22:04;;;;;;;1.17;0.77;;;;;;;;;;5088156;28;20102;-62
2023/05/16 03:25:45;;;;;;;1.98;1.15;;;;;;;;;;5078119;28;20048;-62
2023/05/16 03:29:25;;;;;;;3.13;1.27;;;;;;;;;;5084190;28;20732;-60
2023/05/16 03:33:06;;;;;;;3.38;1.20;;;;;;;;;;5083686;28;20093;-62
2023/05/16 03:36:47;;;;;;;2.10;1.15;;;;;;;;;;5080740;28;20056;-61
2023/05/16 03:40:28;;;;;;;4.60;1.50;;;;;;;;;;5078079;28;20488;-62
2023/05/16 03:44:12;;;;;;;5.03;1.40;;;;;;;;;;5083725;28;20040;-60
2023/05/16 03:47:52;;;;;;;2.83;1.40;;;;;;;;;;5079299;28;20476;-60
2023/05/16 03:51:33;;;;;;;2.78;1.60;;;;;;;;;;5076233;28;20048;-61
2023/05/16 03:55:14;;;;;;;7.60;1.70;;;;;;;;;;5078393;28;20055;-61
2023/05/16 03:58:53;;;;;;;2.83;1.42;;;;;;;;;;5072110;28;20048;-64
2023/05/16 04:02:33;;;;;;;3.83;1.40;;;;;;;;;;5073449;28;20081;-62
2023/05/16 04:06:14;;;;;;;4.03;1.48;;;;;;;;;;5077044;28;20067;-60
2023/05/16 04:09:55;;;;;;;3.25;1.58;;;;;;;;;;5076613;28;20725;-62
2023/05/16 04:13:34;;;;;;;2.65;1.38;;;;;;;;;;5073777;28;20102;-61
2023/05/16 04:17:15;;;;;;;3.63;1.50;;;;;;;;;;5074798;28;20040;-62
2023/05/16 04:20:55;;;;;;;2.67;1.40;;;;;;;;;;5079674;28;20063;-61
2023/05/16 04:24:36;;;;;;;2.67;1.23;;;;;;;;;;5077391;28;20511;-62
2023/05/16 04:28:17;;;;;;;2.30;1.55;;;;;;;;;;5073727;28;20040;-60
2023/05/16 04:32:01;;;;;;;2.00;1.40;;;;;;;;;;5078257;28;20044;-61
2023/05/16 04:35:40;;;;;;;3.60;1.42;;;;;;;;;;5079048;28;20153;-62
2023/05/16 04:39:22;;;;;;;5.55;1.85;;;;;;;;;;5079862;28;20152;-64
2023/05/16 04:43:02;;;;;;;2.53;1.50;;;;;;;;;;5079544;28;20044;-63
2023/05/16 04:46:43;;;;;;;2.35;1.20;;;;;;;;;;5076643;28;20036;-61
2023/05/16 04:50:23;;;;;;;3.97;1.67;;;;;;;;;;5075519;28;20040;-61
2023/05/16 04:54:03;;;;;;;1.95;1.40;;;;;;;;;;5078985;28;20052;-61
2023/05/16 04:57:45;;;;;;;3.60;1.80;;;;;;;;;;5072933;28;20177;-61
2023/05/16 05:01:25;;;;;;;2.42;1.50;;;;;;;;;;5081801;28;20547;-61
2023/05/16 05:05:05;;;;;;;3.63;1.42;;;;;;;;;;5073960;28;20048;-61
2023/05/16 05:08:47;;;;;;;4.00;1.55;;;;;;;;;;5076833;28;20269;-61
2023/05/16 05:12:10;;;;;;;5.13;1.85;;;;;;;;;;5077841;28;20495;-62
2023/05/16 05:15:32;;;;;;;2.65;1.55;;;;;;;;;;5073221;28;20055;-64
2023/05/16 05:17:58;;;;;;;4.55;2.10;;;;;;;;;;5065681;28;20044;-66
2023/05/16 05:20:25;;;;;;;3.70;1.60;;;;;;;;;;5082168;28;20090;-60
2023/05/16 05:22:52;;;;;;;5.40;1.83;;;;;;;;;;5078494;28;20060;-61
2023/05/16 05:25:20;;;;;;;8.43;2.05;;;;;;;;;;5078146;28;20052;-61
2023/05/16 05:27:47;;;;;;;4.45;1.70;;;;;;;;;;5078499;28;20384;-61
2023/05/16 05:30:16;;;;;;;4.80;1.70;;;;;;;;;;5070480;28;20074;-59
2023/05/16 05:32:42;;;;;;;5.20;1.73;;;;;;;;;;5079552;28;20062;-61
2023/05/16 05:35:08;;;;;;;3.13;1.50;;;;;;;;;;5067079;28;20411;-61
2023/05/16 05:37:36;;;;;;;4.63;1.88;;;;;;;;;;5076262;28;20059;-59
2023/05/16 05:40:04;;;;;;;4.78;1.60;;;;;;;;;;5079464;28;20075;-60
2023/05/16 05:42:30;;;;;;;5.15;1.77;;;;;;;;;;5077081;28;20056;-61
2023/05/16 05:44:55;;;;;;;2.65;1.33;;;;;;;;;;5080796;28;20059;-60
2023/05/16 05:47:22;;;;;;;4.40;1.45;;;;;;;;;;5078631;28;20500;-61
2023/05/16 05:49:49;;;;;;;3.08;1.65;;;;;;;;;;5075789;28;20140;-62
2023/05/16 05:52:15;;;;;;;2.78;1.52;;;;;;;;;;5056060;28;20059;-62
2023/05/16 05:54:41;;;;;;;5.75;1.52;;;;;;;;;;5072810;28;20049;-59
2023/05/16 05:57:09;;;;;;;5.90;1.60;;;;;;;;;;5067462;28;20059;-62
2023/05/16 05:59:37;;;;;;;6.88;1.60;;;;;;;;;;5073904;28;20068;-62
2023/05/16 06:02:03;;;;;;;4.22;1.50;;;;;;;;;;5084201;28;20048;-63
2023/05/16 06:04:32;;;;;;;2.10;1.13;;;;;;;;;;5081264;28;20101;-64
2023/05/16 06:06:58;;;;;;;5.57;1.40;;;;;;;;;;5074726;28;20053;-61
2023/05/16 06:09:24;;;;;;;6.00;1.35;;;;;;;;;;5059805;28;20105;-63
2023/05/16 06:11:51;;;;;;;3.53;1.50;;;;;;;;;;5078512;28;20051;-65
2023/05/16 06:14:18;;;;;;;4.10;1.20;;;;;;;;;;5068519;28;20055;-61
2023/05/16 06:16:45;;;;;;;4.25;1.42;;;;;;;;;;5079237;28;20095;-62
2023/05/16 06:19:14;;;;;;;5.97;1.80;;;;;;;;;;5086614;28;20052;-61
2023/05/16 06:21:42;;;;;;;2.88;1.13;;;;;;;;;;5077874;28;20056;-62
2023/05/16 06:24:11;;;;;;;7.25;1.95;;;;;;;;;;5081082;28;20064;-61
2023/05/16 06:26:37;;;;;;;5.30;1.60;;;;;;;;;;5079138;28;20044;-61
2023/05/16 06:29:05;;;;;;;7.10;1.50;;;;;;;;;;5076586;28;20044;-62
2023/05/16 06:31:32;;;;;;;4.53;1.35;;;;;;;;;;5063302;28;20059;-63
2023/05/16 06:33:57;;;;;;;3.13;1.30;;;;;;;;;;5084997;28;20040;-62
2023/05/16 06:36:23;;;;;;;3.70;1.63;;;;;;;;;;5078948;28;20055;-61
2023/05/16 06:38:49;;;;;;;2.63;1.23;;;;;;;;;;5081160;28;20541;-63
2023/05/16 06:41:16;;;;;;;4.10;1.67;;;;;;;;;;5076011;28;20671;-63
2023/05/16 06:43:41;;;;;;;8.80;3.00;;;;;;;;;;5062549;28;20060;-62
2023/05/16 06:46:11;;;;;;;2.55;1.30;;;;;;;;;;5078262;28;20048;-62
2023/05/16 06:48:36;;;;;;;1.80;1.13;;;;;;;;;;5082484;28;20036;-63
2023/05/16 06:51:12;;;;;;;4.93;1.52;;;;;;;;;;5086184;28;20403;-62
2023/05/16 06:53:39;;;;;;;3.25;1.50;;;;;;;;;;5080018;28;20060;-61
2023/05/16 06:56:05;;;;;;;2.30;1.27;;;;;;;;;;5071674;28;20055;-62
2023/05/16 06:58:31;;;;;;;4.65;1.55;;;;;;;;;;5078569;28;20044;-61
2023/05/16 07:00:58;;;;;;;3.55;1.30;;;;;;;;;;5071214;28;20052;-61
2023/05/16 07:04:03;;;;;;;5.22;1.25;;;;;;;;;;5073387;28;20041;-61
2023/05/16 07:07:06;;;;;;;4.00;1.58;;;;;;;;;;5074786;28;20060;-61
2023/05/16 07:10:45;;;;;;;3.25;1.20;;;;;;;;;;5073929;28;20051;-61
2023/05/16 07:14:25;;;;;;;4.72;1.30;;;;;;;;;;5077237;28;20581;-62
2023/05/16 07:18:08;;;;;;;4.90;1.48;;;;;;;;;;5077400;28;20047;-64
2023/05/16 07:21:48;;;;;;;4.35;1.40;;;;;;;;;;5068066;28;20455;-62
2023/05/16 07:25:28;;;;;;;3.17;1.30;;;;;;;;;;5076835;28;20082;-61
2023/05/16 07:29:09;;;;;;;4.50;1.20;;;;;;;;;;5083224;28;20147;-60
2023/05/16 07:32:49;;;;;;;3.60;1.20;;;;;;;;;;5072770;28;20062;-62
2023/05/16 07:36:30;;;;;;;6.13;1.35;;;;;;;;;;5073620;28;20403;-58
2023/05/16 07:40:11;;;;;;;3.33;1.60;;;;;;;;;;5084085;28;20047;-59
2023/05/16 07:43:52;;;;;;;4.47;1.50;;;;;;;;;;5082073;28;20096;-60
2023/05/16 07:47:36;;;;;;;4.30;1.60;;;;;;;;;;5078660;28;20075;-59
2023/05/16 07:51:16;;;;;;;2.55;1.23;;;;;;;;;;5078745;28;20059;-58
2023/05/16 07:54:57;;;;;;;3.80;1.50;;;;;;;;;;5083944;28;20044;-60
2023/05/16 07:58:37;;;;;;;3.22;1.25;;;;;;;;;;5080112;28;20047;-63
2023/05/16 08:02:17;;;;;;;5.90;1.40;;;;;;;;;;5082881;28;20484;-61
2023/05/16 08:05:57;;;;;;;4.18;1.25;;;;;;;;;;5084654;28;20055;-61
2023/05/16 08:09:38;;;;;;;2.72;1.50;;;;;;;;;;5070490;28;20084;-60
2023/05/16 08:13:18;;;;;;;3.67;1.40;;;;;;;;;;5067840;28;20071;-58
2023/05/16 08:16:59;;;;;;;6.00;1.25;;;;;;;;;;5072601;28;20067;-63
2023/05/16 08:20:40;;;;;;;3.65;1.30;;;;;;;;;;5074448;28;20105;-61
2023/05/16 08:24:20;;;;;;;4.95;1.20;;;;;;;;;;5069647;28;20064;-60
2023/05/16 08:28:01;;;;;;;5.70;1.27;;;;;;;;;;5071857;28;20100;-59
2023/05/16 08:31:41;;;;;;;1.85;1.08;;;;;;;;;;5088448;28;20523;-61
2023/05/16 08:35:22;;;;;;;5.75;1.33;;;;;;;;;;5074153;28;20079;-60
2023/05/16 08:39:02;;;;;;;5.90;1.00;;;;;;;;;;5082496;28;20040;-61
2023/05/16 08:42:43;;;;;;;3.55;1.30;;;;;;;;;;5073051;28;20291;-62
2023/05/16 08:46:23;;;;;;;6.63;1.20;;;;;;;;;;5077456;28;20178;-58
2023/05/16 08:50:03;;;;;;;10.10;1.23;;;;;;;;;;5080777;28;20131;-60
2023/05/16 08:53:43;;;;;;;2.17;0.90;;;;;;;;;;5076837;28;20047;-59
2023/05/16 08:57:24;;;;;;;6.40;1.10;;;;;;;;;;5076938;28;20058;-60
2023/05/16 09:01:07;;;;;;;4.78;1.20;;;;;;;;;;5072392;28;20067;-60
2023/05/16 09:04:46;;;;;;;2.30;1.20;;;;;;;;;;5074312;28;20036;-59
2023/05/16 09:08:26;;;;;;;5.47;1.08;;;;;;;;;;5073883;28;20075;-60
2023/05/16 09:12:08;;;;;;;2.30;0.95;;;;;;;;;;5079084;28;20090;-61
2023/05/16 09:15:51;;;;;;;4.72;1.20;;;;;;;;;;5076320;28;20072;-60
2023/05/16 09:19:34;;;;;;;2.58;1.02;;;;;;;;;;5084068;28;20043;-60
2023/05/16 09:23:14;;;;;;;3.85;1.30;;;;;;;;;;5070495;28;20463;-60
2023/05/16 09:26:55;;;;;;;2.25;1.00;;;;;;;;;;5072961;28;20055;-61
2023/05/16 09:30:36;;;;;;;1.80;1.10;;;;;;;;;;5077672;28;20045;-57
2023/05/16 09:34:16;;;;;;;2.80;1.30;;;;;;;;;;5077086;28;20052;-60
2023/05/16 09:37:56;;;;;;;1.50;1.00;;;;;;;;;;5072782;28;20044;-61
2023/05/16 09:41:37;;;;;;;3.95;1.27;;;;;;;;;;5077232;28;20490;-65
2023/05/16 09:45:20;;;;;;;3.05;1.08;;;;;;;;;;5078344;28;20167;-58
2023/05/16 09:49:00;;;;;;;2.03;0.98;;;;;;;;;;5089009;28;20157;-60
2023/05/16 09:52:40;;;;;;;5.70;1.40;;;;;;;;;;5076295;28;20040;-59
2023/05/16 09:56:28;;;;;;;2.42;0.90;;;;;;;;;;5083295;28;20075;-61
2023/05/16 10:00:09;;;;;;;3.30;1.20;;;;;;;;;;5085546;28;20042;-58
2023/05/16 10:03:49;;;;;;;4.10;1.40;;;;;;;;;;5078690;28;20040;-61
2023/05/16 10:07:29;;;;;;;3.35;1.13;;;;;;;;;;5079838;28;20067;-60
2023/05/16 10:11:09;;;;;;;2.95;0.90;;;;;;;;;;5077672;28;20056;-60
2023/05/16 10:14:50;;;;;;;1.88;1.00;;;;;;;;;;5078443;28;20068;-61
2023/05/16 10:18:30;;;;;;;1.60;0.90;;;;;;;;;;5086108;28;20076;-62
2023/05/16 10:22:10;;;;;;;2.92;1.10;;;;;;;;;;5081666;28;20181;-60
2023/05/16 10:25:57;;;;;;;2.53;1.02;;;;;;;;;;5088412;28;20044;-60
2023/05/16 10:29:37;;;;;;;1.65;1.00;;;;;;;;;;5078955;28;20099;-64
2023/05/16 10:33:18;;;;;;;3.72;1.00;;;;;;;;;;5078067;28;20044;-64
2023/05/16 10:36:58;;;;;;;3.72;1.38;;;;;;;;;;5080600;28;20170;-62
2023/05/16 10:40:39;;;;;;;2.72;0.98;;;;;;;;;;5078699;28;20411;-59
2023/05/16 10:44:20;;;;;;;6.07;1.40;;;;;;;;;;5083390;28;20488;-60
2023/05/16 10:47:57;;;;;;;5.10;1.15;;;;;;;;;;5076546;28;20037;-62
2023/05/16 10:51:19;;;;;;;3.67;1.30;;;;;;;;;;5084401;28;20040;-63
2023/05/16 10:55:03;;;;;;;6.50;1.20;;;;;;;;;;5087107;28;20554;-61
2023/05/16 10:58:43;;;;;;;5.55;1.25;;;;;;;;;;5087169;28;20063;-59
2023/05/16 11:02:23;;;;;;;2.03;1.33;;;;;;;;;;5077581;28;20093;-62
2023/05/16 11:06:04;;;;;;;4.70;1.10;;;;;;;;;;5078961;28;20578;-63
2023/05/16 11:11:51;;;;;;;2.90;0.98;;;;;;;;;;5075028;28;20044;-62
2023/05/16 11:15:38;;;;;;;1.75;1.10;;;;;;;;;;5086315;28;20036;-62
2023/05/16 11:19:24;;;;;;;2.47;1.30;;;;;;;;;;5071029;28;20040;-62
2023/05/16 11:23:05;;;;;;;2.92;1.30;;;;;;;;;;5073712;28;20048;-60
2023/05/16 11:26:45;;;;;;;3.70;1.30;;;;;;;;;;5074789;28;20048;-59
2023/05/16 11:30:05;;;;;;;4.93;1.27;;;;;;;;;;5077900;28;20044;-61
2023/05/16 11:33:47;;;;;;;9.00;1.55;;;;;;;;;;5074080;28;20056;-61
2023/05/16 11:37:28;;;;;;;5.32;1.40;;;;;;;;;;5070314;28;20055;-61
2023/05/16 11:41:08;;;;;;;7.72;2.28;;;;;;;;;;5072892;28;20043;-58
2023/05/16 11:44:48;;;;;;;7.00;1.52;;;;;;;;;;5075530;28;20140;-61
2023/05/16 11:48:29;;;;;;;8.00;2.20;;;;;;;;;;5071181;28;20048;-60
2023/05/16 11:52:09;;;;;;;7.95;1.30;;;;;;;;;;5073613;28;20146;-58
2023/05/16 11:55:51;;;;;;;2.00;0.98;;;;;;;;;;5077631;28;20054;-61
2023/05/16 11:59:29;;;;;;;7.35;1.50;;;;;;;;;;5079153;28;20051;-61
2023/05/16 12:03:10;;;;;;;3.25;1.25;;;;;;;;;;5073835;28;20122;-63
2023/05/16 12:06:50;;;;;;;2.38;0.90;;;;;;;;;;5084805;28;20625;-61
2023/05/16 12:10:32;;;;;;;7.20;1.30;;;;;;;;;;5079335;28;20048;-61
2023/05/16 12:14:11;;;;;;;5.53;1.10;;;;;;;;;;5076181;28;20400;-61
2023/05/16 12:17:51;;;;;;;4.90;1.17;;;;;;;;;;5068284;28;20053;-59
2023/05/16 12:21:32;;;;;;;3.42;1.90;;;;;;;;;;5074748;28;20067;-70
2023/05/16 12:25:12;;;;;;;4.53;1.33;;;;;;;;;;5078105;28;20105;-62
2023/05/16 12:28:56;;;;;;;4.22;1.58;;;;;;;;;;5074763;28;20409;-63
2023/05/16 12:32:34;;;;;;;1.95;1.00;;;;;;;;;;5072197;28;20081;-63
2023/05/16 12:36:14;;;;;;;4.90;1.40;;;;;;;;;;5077176;28;20656;-62
2023/05/16 12:39:57;;;;;;;2.08;1.00;;;;;;;;;;5082222;28;20071;-63
2023/05/16 12:43:40;;;;;;;3.17;1.50;;;;;;;;;;5081099;28;20504;-60
2023/05/16 12:47:23;;;;;;;3.15;1.30;;;;;;;;;;5078457;28;20109;-59
2023/05/16 12:51:03;;;;;;;8.85;1.88;;;;;;;;;;5073817;28;20542;-61
2023/05/16 12:54:50;;;;;;;7.25;1.33;;;;;;;;;;5077195;28;20040;-62
2023/05/16 12:58:30;;;;;;;4.03;1.40;;;;;;;;;;5079776;28;20255;-64
2023/05/16 13:02:11;;;;;;;2.80;1.33;;;;;;;;;;5074265;28;20407;-61
2023/05/16 13:05:51;;;;;;;3.88;1.60;;;;;;;;;;5071780;28;20059;-63
2023/05/16 13:09:32;;;;;;;1.88;1.10;;;;;;;;;;5080077;28;20099;-63
2023/05/16 13:13:13;;;;;;;4.90;1.70;;;;;;;;;;5075226;28;20044;-61
2023/05/16 13:16:52;;;;;;;7.45;1.15;;;;;;;;;;5073577;28;20449;-61
2023/05/16 13:20:32;;;;;;;4.75;1.30;;;;;;;;;;5074037;28;20046;-61
2023/05/16 13:24:13;;;;;;;2.85;1.40;;;;;;;;;;5076851;28;20451;-62
2023/05/16 13:27:57;;;;;;;5.28;1.40;;;;;;;;;;5063919;28;20336;-60
2023/05/16 13:31:38;;;;;;;4.53;1.48;;;;;;;;;;5067368;28;20051;-61
2023/05/16 13:35:18;;;;;;;2.60;1.10;;;;;;;;;;5075941;28;20039;-62
2023/05/16 13:38:58;;;;;;;10.05;1.70;;;;;;;;;;5072367;28;20336;-64
2023/05/16 13:42:45;;;;;;;5.53;1.40;;;;;;;;;;5072987;28;20104;-64
2023/05/16 13:46:25;;;;;;;3.13;1.23;;;;;;;;;;5078723;28;20076;-60
2023/05/16 13:50:08;;;;;;;5.43;1.20;;;;;;;;;;5077764;28;20416;-63
2023/05/16 13:53:48;;;;;;;7.80;1.23;;;;;;;;;;5073788;28;20048;-63
2023/05/16 13:57:28;;;;;;;12.73;1.20;;;;;;;;;;5075230;28;20063;-60
2023/05/16 14:01:09;;;;;;;5.95;1.25;;;;;;;;;;5076187;28;20044;-68
2023/05/16 14:04:49;;;;;;;4.07;1.17;;;;;;;;;;5077513;28;20141;-62
2023/05/16 14:08:29;;;;;;;6.03;1.30;;;;;;;;;;5070280;28;20075;-63
2023/05/16 14:12:10;;;;;;;5.70;1.20;;;;;;;;;;5066325;28;20095;-63
2023/05/16 14:15:51;;;;;;;4.70;1.70;;;;;;;;;;5072701;28;20045;-62
2023/05/16 14:19:30;;;;;;;4.22;1.52;;;;;;;;;;5081125;28;20050;-68
2023/05/16 14:23:12;;;;;;;4.10;1.40;;;;;;;;;;5073010;28;20040;-63
2023/05/16 14:26:57;;;;;;;2.40;1.20;;;;;;;;;;5069816;28;20257;-63
2023/05/16 14:30:37;;;;;;;7.53;1.27;;;;;;;;;;5075836;28;20052;-63
2023/05/16 14:34:17;;;;;;;4.05;1.27;;;;;;;;;;5080897;28;20194;-62
2023/05/16 14:37:59;;;;;;;4.03;1.42;;;;;;;;;;5079397;28;20052;-62
2023/05/16 14:41:40;;;;;;;2.88;1.02;;;;;;;;;;5085008;28;20040;-64
2023/05/16 14:45:20;;;;;;;5.38;1.52;;;;;;;;;;5083284;28;20047;-65
2023/05/16 14:49:01;;;;;;;3.97;1.30;;;;;;;;;;5077178;28;20100;-63
2023/05/16 14:52:41;;;;;;;5.90;1.60;;;;;;;;;;5075085;28;20050;-65
2023/05/16 14:56:21;;;;;;;4.30;1.38;;;;;;;;;;5080524;28;20549;-66
2023/05/16 15:00:02;;;;;;;7.45;1.42;;;;;;;;;;5079117;28;20074;-66
2023/05/16 15:03:42;;;;;;;3.42;1.48;;;;;;;;;;5073235;28;20056;-69
2023/05/16 15:07:24;;;;;;;4.50;1.50;;;;;;;;;;5077669;28;20516;-66
2023/05/16 15:11:04;;;;;;;4.13;1.38;;;;;;;;;;5081610;28;20454;-65
2023/05/16 15:14:45;;;;;;;1.98;1.48;;;;;;;;;;5077829;28;20080;-66
2023/05/16 15:18:26;;;;;;;1.98;1.30;;;;;;;;;;5081071;28;20046;-65
2023/05/16 15:22:07;;;;;;;6.53;1.80;;;;;;;;;;5078047;28;20037;-65
2023/05/16 15:25:47;;;;;;;4.80;1.90;;;;;;;;;;5087827;28;20059;-66
2023/05/16 15:29:27;;;;;;;3.38;1.33;;;;;;;;;;5077596;28;20040;-69
2023/05/16 15:33:07;;;;;;;2.25;1.10;;;;;;;;;;5080114;28;20146;-62
2023/05/16 15:36:48;;;;;;;1.60;1.20;;;;;;;;;;5074219;28;20196;-67
2023/05/16 15:40:28;;;;;;;3.78;1.58;;;;;;;;;;5088657;28;20050;-67
2023/05/16 15:44:08;;;;;;;2.65;1.27;;;;;;;;;;5075746;28;20515;-64
2023/05/16 15:47:49;;;;;;;3.67;1.70;;;;;;;;;;5077582;28;20055;-66
2023/05/16 15:51:32;;;;;;;6.95;1.60;;;;;;;;;;5082388;28;20035;-67
2023/05/16 15:55:12;;;;;;;3.92;1.23;;;;;;;;;;5078842;28;20522;-66
2023/05/16 15:58:52;;;;;;;3.20;1.40;;;;;;;;;;5076390;28;20051;-66
2023/05/16 16:02:33;;;;;;;3.95;1.38;;;;;;;;;;5081287;28;20055;-65
2023/05/16 16:06:15;;;;;;;2.50;1.42;;;;;;;;;;5082344;28;20499;-62
2023/05/16 16:09:58;;;;;;;2.72;1.70;;;;;;;;;;5075949;28;20055;-66
2023/05/16 16:13:39;;;;;;;13.63;1.67;;;;;;;;;;5073130;28;21137;-66
2023/05/16 16:17:19;;;;;;;5.28;1.25;;;;;;;;;;5073651;28;20507;-64
2023/05/16 16:20:59;;;;;;;4.68;1.35;;;;;;;;;;5078234;28;20075;-65
2023/05/16 16:24:39;;;;;;;9.32;1.70;;;;;;;;;;5085729;28;20094;-64
2023/05/16 16:28:21;;;;;;;3.08;1.33;;;;;;;;;;5074954;28;20537;-66
2023/05/16 16:32:02;;;;;;;2.20;1.10;;;;;;;;;;5069216;28;20269;-64
2023/05/16 16:35:45;;;;;;;4.75;1.30;;;;;;;;;;5069455;28;20135;-64
2023/05/16 16:39:25;;;;;;;4.82;1.40;;;;;;;;;;5082625;28;20066;-65
2023/05/16 16:43:06;;;;;;;4.38;1.20;;;;;;;;;;5077584;28;20047;-65
2023/05/16 16:46:46;;;;;;;3.83;1.35;;;;;;;;;;5081753;28;20096;-64
2023/05/16 16:50:27;;;;;;;3.67;1.17;;;;;;;;;;5074410;28;20048;-64
2023/05/16 16:54:07;;;;;;;3.90;1.20;;;;;;;;;;5079908;28;20131;-65
2023/05/16 16:57:47;;;;;;;7.25;1.35;;;;;;;;;;5073467;28;20074;-64
2023/05/16 17:01:30;;;;;;;1.95;1.13;;;;;;;;;;5075803;28;20042;-67
2023/05/16 17:05:08;;;;;;;4.65;1.25;;;;;;;;;;5078454;28;20483;-63
2023/05/16 17:08:49;;;;;;;2.25;1.17;;;;;;;;;;5076529;28;20063;-64
2023/05/16 17:12:29;;;;;;;2.78;1.30;;;;;;;;;;5078758;28;20564;-65
2023/05/16 17:16:10;;;;;;;1.85;1.00;;;;;;;;;;5067299;28;20076;-64
2023/05/16 17:19:50;;;;;;;1.98;1.20;;;;;;;;;;5080832;28;20142;-64
2023/05/16 17:23:31;;;;;;;5.97;1.20;;;;;;;;;;5078788;28;20084;-64
2023/05/16 17:27:11;;;;;;;2.65;1.30;;;;;;;;;;5077716;28;20413;-64
2023/05/16 17:30:50;;;;;;;2.22;1.20;;;;;;;;;;5074722;28;20044;-64
2023/05/16 17:34:31;;;;;;;4.88;1.40;;;;;;;;;;5074768;28;20048;-64
2023/05/16 17:38:12;;;;;;;2.05;1.30;;;;;;;;;;5074541;28;20391;-64
2023/05/16 17:41:53;;;;;;;3.17;1.23;;;;;;;;;;5072995;28;20058;-67
2023/05/16 17:45:32;;;;;;;3.45;1.23;;;;;;;;;;5068326;28;20044;-66
2023/05/16 17:49:13;;;;;;;3.72;1.60;;;;;;;;;;5076350;28;20090;-64
2023/05/16 17:52:54;;;;;;;3.75;1.15;;;;;;;;;;5072569;28;20044;-67
2023/05/16 17:56:34;;;;;;;2.72;1.08;;;;;;;;;;5072060;28;20347;-65
2023/05/16 18:00:16;;;;;;;2.80;1.75;;;;;;;;;;5071824;28;20043;-66
2023/05/16 18:03:55;;;;;;;3.33;1.30;;;;;;;;;;5079570;28;20574;-68
2023/05/16 18:07:36;;;;;;;9.10;1.38;;;;;;;;;;5074857;28;20075;-68
2023/05/16 18:11:17;;;;;;;8.95;1.70;;;;;;;;;;5078996;28;20176;-68
2023/05/16 18:14:57;;;;;;;3.92;1.45;;;;;;;;;;5067968;28;20044;-69
2023/05/16 18:18:38;;;;;;;5.28;1.88;;;;;;;;;;5069901;28;20568;-66
2023/05/16 18:22:19;;;;;;;3.35;1.20;;;;;;;;;;5078310;28;20177;-66
2023/05/16 18:26:00;;;;;;;4.32;1.42;;;;;;;;;;5079553;28;20083;-64
2023/05/16 18:29:41;;;;;;;6.43;1.60;;;;;;;;;;5083623;28;20047;-65
2023/05/16 18:33:20;;;;;;;9.38;1.50;;;;;;;;;;5083847;28;20387;-65
2023/05/16 18:37:01;;;;;;;9.98;1.90;;;;;;;;;;5085239;28;20149;-64
2023/05/16 18:40:46;;;;;;;5.97;1.35;;;;;;;;;;5075933;28;20540;-64
2023/05/16 18:44:21;;;;;;;3.83;1.52;;;;;;;;;;5078717;28;20043;-65
2023/05/16 18:48:02;;;;;;;5.57;2.50;;;;;;;;;;5079800;28;20067;-62
2023/05/16 18:51:42;;;;;;;3.22;1.40;;;;;;;;;;5074376;28;20131;-65
2023/05/16 18:55:23;;;;;;;4.57;1.10;;;;;;;;;;5078152;28;20046;-67
2023/05/16 18:59:03;;;;;;;4.25;1.30;;;;;;;;;;5079907;28;20040;-64
2023/05/16 19:02:43;;;;;;;6.72;1.30;;;;;;;;;;5077555;28;20082;-64
2023/05/16 19:06:24;;;;;;;4.03;1.52;;;;;;;;;;5070209;28;20065;-64
2023/05/16 19:10:05;;;;;;;6.82;1.88;;;;;;;;;;5076242;28;20043;-65
2023/05/16 19:13:46;;;;;;;4.20;1.48;;;;;;;;;;5078099;28;20299;-62
2023/05/16 19:17:26;;;;;;;6.20;1.67;;;;;;;;;;5073984;28;20051;-63
2023/05/16 19:21:06;;;;;;;6.72;2.42;;;;;;;;;;5070785;28;20090;-62
2023/05/16 19:24:47;;;;;;;4.18;1.60;;;;;;;;;;5076519;28;20380;-62
2023/05/16 19:28:27;;;;;;;2.88;1.60;;;;;;;;;;5075563;28;20036;-64
2023/05/16 19:32:09;;;;;;;3.95;1.65;;;;;;;;;;5081208;28;20052;-61
2023/05/16 19:35:51;;;;;;;5.57;1.75;;;;;;;;;;5074490;28;20047;-62
2023/05/16 19:39:30;;;;;;;7.88;1.52;;;;;;;;;;5072299;28;20415;-70
2023/05/16 19:43:09;;;;;;;5.45;1.38;;;;;;;;;;5078093;28;20442;-63
2023/05/16 19:46:50;;;;;;;2.97;1.40;;;;;;;;;;5089697;28;20086;-65
2023/05/16 19:50:30;;;;;;;7.80;1.75;;;;;;;;;;5081279;28;20123;-63
2023/05/16 19:54:11;;;;;;;8.02;2.15;;;;;;;;;;5072242;28;20059;-64
2023/05/16 19:57:51;;;;;;;4.70;1.20;;;;;;;;;;5081285;28;20389;-63
2023/05/16 20:01:31;;;;;;;4.43;1.67;;;;;;;;;;5081029;28;20055;-63
2023/05/16 20:05:13;;;;;;;6.95;2.10;;;;;;;;;;5074118;28;20094;-62
2023/05/16 20:08:55;;;;;;;3.38;1.55;;;;;;;;;;5055883;28;20088;-59
2023/05/16 20:12:35;;;;;;;3.65;1.42;;;;;;;;;;5054329;28;20336;-62
2023/05/16 20:16:18;;;;;;;4.63;1.88;;;;;;;;;;5054199;28;20052;-63
2023/05/16 20:19:56;;;;;;;4.18;1.73;;;;;;;;;;5065416;28;20048;-62
2023/05/16 20:23:38;;;;;;;6.10;1.63;;;;;;;;;;5058376;28;20059;-63
2023/05/16 20:27:17;;;;;;;5.63;1.92;;;;;;;;;;5052203;28;20059;-63
2023/05/16 20:30:57;;;;;;;6.38;1.55;;;;;;;;;;5054106;28;20048;-62
2023/05/16 20:34:37;;;;;;;3.47;1.65;;;;;;;;;;5063670;28;20072;-63
2023/05/16 20:38:18;;;;;;;3.80;1.50;;;;;;;;;;5054858;28;20041;-66
2023/05/16 20:41:59;;;;;;;4.60;1.60;;;;;;;;;;5053873;28;21332;-59
2023/05/16 20:45:41;;;;;;;6.30;1.95;;;;;;;;;;5053130;28;20044;-61
2023/05/16 20:48:41;;;;;;;6.13;2.17;;;;;;;;;;5064902;28;20052;-59
2023/05/16 20:51:07;;;;;;;3.15;1.85;;;;;;;;;;5056437;28;20049;-59
2023/05/16 20:53:34;;;;;;;5.15;2.00;;;;;;;;;;5059837;28;20063;-63
2023/05/16 20:56:00;;;;;;;4.22;2.22;;;;;;;;;;5058788;28;20114;-69
2023/05/16 20:58:26;;;;;;;4.15;2.40;;;;;;;;;;5058904;28;20037;-62
2023/05/16 21:00:52;;;;;;;3.88;2.20;;;;;;;;;;5066290;28;20378;-61
2023/05/16 21:03:17;;;;;;;3.88;2.20;;;;;;;;;;5056738;28;20178;-63